Time;durP1;ratioP1;P1;durP2;ratioP2;P2;SDS_P1;SDS_P2;PMS_P1;PMS_P2;Temp;Humidity;BMP_temperature;BMP_pressure;BME280_temperature;BME280_humidity;BME280_pressure;Samples;Min_cycle;Max_cycle;Signal;HPM_P1;HPM_P2
2023/04/06 00:02:03;;;;;;;26.80;17.60;;;;;;;0.05;95.46;100766.19;180829;1262;44123;-85
2023/04/06 00:06:06;;;;;;;37.40;22.40;;;;;;;0.07;95.13;100763.16;180763;1263;44148;-85
2023/04/06 00:10:10;;;;;;;38.80;22.50;;;;;;;0.07;95.15;100762.30;180885;1263;58210;-85
2023/04/06 00:14:13;;;;;;;34.60;21.30;;;;;;;-0.03;95.92;100763.64;180768;1262;43877;-85
2023/04/06 00:18:17;;;;;;;34.20;22.40;;;;;;;-0.12;96.50;100757.27;180767;1262;44095;-85
2023/04/06 00:22:20;;;;;;;48.00;29.80;;;;;;;-0.12;97.29;100756.59;180762;1263;44023;-86
2023/04/06 00:26:23;;;;;;;35.10;24.20;;;;;;;-0.12;97.23;100754.16;180834;1263;43944;-86
2023/04/06 00:30:27;;;;;;;31.60;25.20;;;;;;;-0.10;96.48;100753.55;180780;1262;57938;-86
2023/04/06 00:34:30;;;;;;;52.60;26.50;;;;;;;-0.08;97.14;100754.39;180729;1262;44112;-85
2023/04/06 00:38:33;;;;;;;52.70;26.00;;;;;;;-0.04;96.60;100752.70;180842;1262;44152;-85
2023/04/06 00:42:38;;;;;;;36.30;21.00;;;;;;;0.01;95.47;100751.86;180842;1263;43893;-85
2023/04/06 00:46:41;;;;;;;36.50;23.90;;;;;;;0.10;94.46;100746.88;180790;1263;43766;-85
2023/04/06 00:50:45;;;;;;;39.30;26.90;;;;;;;0.19;93.22;100748.32;180773;1263;59271;-85
2023/04/06 00:54:49;;;;;;;34.80;23.10;;;;;;;0.27;91.92;100747.56;180826;1261;44172;-85
2023/04/06 00:58:53;;;;;;;45.80;27.20;;;;;;;0.33;91.39;100745.64;180961;1261;43822;-85
2023/04/06 01:02:59;;;;;;;38.60;23.50;;;;;;;0.33;91.63;100748.23;180871;1262;44034;-86
2023/04/06 01:07:04;;;;;;;32.60;21.30;;;;;;;0.33;92.16;100741.79;180858;1263;43794;-86
2023/04/06 01:11:07;;;;;;;30.40;19.90;;;;;;;0.31;92.66;100736.28;180789;1261;58277;-86
2023/04/06 01:15:11;;;;;;;33.30;17.90;;;;;;;0.13;94.38;100738.05;180702;1262;44215;-86
2023/04/06 01:19:14;;;;;;;30.50;21.40;;;;;;;-0.11;96.69;100740.86;180873;1262;44966;-85
2023/04/06 01:23:18;;;;;;;34.70;24.10;;;;;;;-0.28;98.35;100738.92;180730;1262;43778;-86
2023/04/06 01:27:21;;;;;;;40.10;19.60;;;;;;;-0.46;99.38;100735.27;180999;1261;44060;-85
2023/04/06 01:31:25;;;;;;;38.70;22.00;;;;;;;-0.54;99.95;100733.91;180965;1262;57913;-86
2023/04/06 01:35:28;;;;;;;45.90;31.10;;;;;;;-0.56;100.00;100738.34;180857;1262;44071;-86
2023/04/06 01:39:31;;;;;;;34.30;18.60;;;;;;;-0.59;100.00;100739.09;180936;1262;43750;-86
2023/04/06 01:43:35;;;;;;;37.10;25.00;;;;;;;-0.64;100.00;100734.70;180840;1262;44036;-86
2023/04/06 01:47:38;;;;;;;43.40;25.00;;;;;;;-0.61;100.00;100733.92;180813;1262;44325;-86
2023/04/06 01:51:47;;;;;;;33.80;23.90;;;;;;;-0.65;99.56;100736.82;180988;1262;58468;-86
2023/04/06 01:55:50;;;;;;;37.10;20.90;;;;;;;-0.67;98.70;100738.27;180814;1262;44220;-86
2023/04/06 01:59:54;;;;;;;41.80;23.20;;;;;;;-0.67;98.28;100740.39;180810;1261;44211;-86
2023/04/06 02:03:58;;;;;;;37.70;22.60;;;;;;;-0.67;97.99;100737.23;180947;1263;43659;-86
2023/04/06 02:08:00;;;;;;;32.50;21.70;;;;;;;-0.64;97.50;100740.11;181019;1262;44077;-86
2023/04/06 02:12:04;;;;;;;32.80;22.00;;;;;;;-0.51;97.14;100742.89;180873;1262;58513;-86
2023/04/06 02:16:16;;;;;;;40.60;23.70;;;;;;;-0.38;96.19;100750.21;180928;1262;44032;-85
2023/04/06 02:20:19;;;;;;;40.30;19.60;;;;;;;-0.30;95.12;100751.35;180772;1262;44321;-85
2023/04/06 02:24:22;;;;;;;52.80;25.50;;;;;;;-0.23;94.66;100750.45;180806;1263;43742;-85
2023/04/06 02:28:26;;;;;;;37.40;25.20;;;;;;;-0.13;94.18;100750.00;180869;1261;44487;-86
2023/04/06 02:32:29;;;;;;;45.40;26.20;;;;;;;-0.03;93.60;100748.82;181002;1261;59247;-85
2023/04/06 02:36:32;;;;;;;37.10;23.90;;;;;;;-0.06;92.97;100747.86;180838;1262;44081;-85
2023/04/06 02:40:36;;;;;;;39.50;23.00;;;;;;;-0.12;91.82;100749.61;180737;1262;44294;-85
2023/04/06 02:44:39;;;;;;;36.80;23.50;;;;;;;-0.11;91.23;100755.53;180963;1261;44326;-85
2023/04/06 02:48:42;;;;;;;51.70;23.90;;;;;;;-0.09;91.30;100761.38;180996;1262;44048;-85
2023/04/06 02:52:45;;;;;;;45.30;25.30;;;;;;;-0.09;91.66;100762.95;180795;1262;57148;-84
2023/04/06 02:56:49;;;;;;;47.20;24.90;;;;;;;-0.06;92.19;100762.34;180814;1261;44183;-85
2023/04/06 03:00:52;;;;;;;35.70;23.80;;;;;;;-0.12;91.68;100761.65;180966;1261;43805;-85
2023/04/06 03:04:55;;;;;;;44.90;27.30;;;;;;;-0.25;92.79;100762.54;180952;1262;44353;-85
2023/04/06 03:08:58;;;;;;;46.00;23.60;;;;;;;-0.31;92.62;100768.27;180929;1261;43933;-85
2023/04/06 03:13:02;;;;;;;31.50;23.60;;;;;;;-0.31;92.13;100768.30;180712;1261;58442;-85
2023/04/06 03:17:05;;;;;;;33.50;23.70;;;;;;;-0.29;91.44;100762.13;180870;1261;44374;-86
2023/04/06 03:21:08;;;;;;;42.00;26.10;;;;;;;-0.34;90.31;100769.42;180769;1263;44247;-87
2023/04/06 03:25:12;;;;;;;38.50;24.50;;;;;;;-0.38;89.97;100767.80;180728;1261;43773;-87
2023/04/06 03:29:15;;;;;;;37.70;26.40;;;;;;;-0.41;89.16;100765.27;180717;1261;44053;-87
2023/04/06 03:33:20;;;;;;;53.00;27.50;;;;;;;-0.43;89.99;100768.82;180787;1262;59232;-87
2023/04/06 03:37:23;;;;;;;37.70;28.70;;;;;;;-0.53;92.72;100771.35;180837;1261;43804;-88
2023/04/06 03:41:26;;;;;;;39.60;22.40;;;;;;;-0.63;92.06;100772.66;180818;1261;44090;-87
2023/04/06 03:45:29;;;;;;;36.90;22.20;;;;;;;-0.66;92.79;100781.98;180763;1262;43739;-87
2023/04/06 03:49:33;;;;;;;36.90;25.20;;;;;;;-0.69;93.65;100785.19;180892;1262;44381;-87
2023/04/06 03:53:37;;;;;;;33.20;24.50;;;;;;;-0.78;95.56;100785.27;180749;1262;58051;-87
2023/04/06 03:57:40;;;;;;;47.80;24.80;;;;;;;-0.83;96.20;100790.96;180898;1262;44040;-87
2023/04/06 04:01:43;;;;;;;37.80;26.40;;;;;;;-0.79;95.58;100794.34;180925;1261;44131;-88
2023/04/06 04:05:47;;;;;;;36.70;22.50;;;;;;;-0.78;93.70;100793.98;181007;1262;43937;-88
2023/04/06 04:09:50;;;;;;;48.40;25.80;;;;;;;-0.77;91.86;100799.69;180813;1262;43964;-87
2023/04/06 04:13:53;;;;;;;29.40;24.00;;;;;;;-0.75;91.50;100797.39;180866;1262;59285;-85
2023/04/06 04:17:58;;;;;;;41.30;23.80;;;;;;;-0.73;91.10;100798.88;180919;1261;43822;-87
2023/04/06 04:22:04;;;;;;;39.80;24.00;;;;;;;-0.72;90.82;100803.91;180958;1262;44072;-88
2023/04/06 04:26:09;;;;;;;48.60;27.30;;;;;;;-0.67;90.43;100800.66;180938;1262;44153;-88
2023/04/06 04:30:13;;;;;;;44.00;22.50;;;;;;;-0.70;90.13;100805.79;180886;1262;44137;-88
2023/04/06 04:34:17;;;;;;;34.40;21.50;;;;;;;-0.77;90.53;100804.02;180925;1262;58240;-87
2023/04/06 04:38:20;;;;;;;41.70;26.00;;;;;;;-0.85;91.06;100803.55;180983;1261;43766;-89
2023/04/06 04:42:24;;;;;;;40.90;23.50;;;;;;;-0.87;91.93;100802.91;180810;1261;44017;-88
2023/04/06 04:46:27;;;;;;;34.60;22.20;;;;;;;-0.78;92.40;100803.03;180797;1261;43747;-88
2023/04/06 04:50:31;;;;;;;39.10;24.20;;;;;;;-0.30;93.64;100806.08;180782;1261;44097;-88
2023/04/06 04:54:35;;;;;;;38.50;23.90;;;;;;;0.21;92.47;100808.44;180834;1262;59633;-88
2023/04/06 04:58:38;;;;;;;39.90;24.00;;;;;;;0.53;89.56;100808.68;180767;1262;43930;-88
2023/04/06 05:02:41;;;;;;;39.20;23.90;;;;;;;0.93;95.42;100800.10;181021;1262;43787;-88
2023/04/06 05:06:45;;;;;;;40.90;27.20;;;;;;;1.24;90.27;100804.47;181009;1261;43995;-88
2023/04/06 05:10:49;;;;;;;40.30;26.50;;;;;;;1.50;86.75;100799.54;180855;1262;44206;-88
2023/04/06 05:14:54;;;;;;;33.60;25.80;;;;;;;1.67;85.11;100801.05;180850;1262;58254;-88
2023/04/06 05:18:57;;;;;;;33.20;24.20;;;;;;;1.83;85.02;100803.42;181016;1262;43766;-88
2023/04/06 05:23:01;;;;;;;31.90;21.50;;;;;;;1.96;84.48;100806.27;180839;1262;43795;-88
2023/04/06 05:27:04;;;;;;;30.10;20.30;;;;;;;2.01;85.37;100808.34;180738;1262;44295;-89
2023/04/06 05:31:27;;;;;;;25.20;20.50;;;;;;;2.30;87.70;100814.10;180984;1261;43704;-89
2023/04/06 05:35:30;;;;;;;31.50;24.30;;;;;;;2.63;86.12;100814.20;180796;1262;58328;-89
2023/04/06 05:39:34;;;;;;;35.00;24.80;;;;;;;3.35;91.28;100814.18;180848;1261;44222;-89
2023/04/06 05:43:37;;;;;;;38.00;24.40;;;;;;;4.07;87.76;100819.64;180856;1262;43873;-89
2023/04/06 05:47:40;;;;;;;45.30;27.20;;;;;;;4.66;84.56;100821.78;180625;1262;44086;-89
2023/04/06 05:51:43;;;;;;;31.60;23.20;;;;;;;5.22;81.18;100812.92;180811;1261;43775;-89
2023/04/06 05:55:47;;;;;;;33.10;22.70;;;;;;;5.41;77.19;100812.48;180882;1261;59591;-89
2023/04/06 05:59:55;;;;;;;34.60;21.30;;;;;;;5.38;76.43;100811.76;180696;1262;43891;-89
2023/04/06 06:03:59;;;;;;;37.90;22.60;;;;;;;5.27;74.16;100809.82;180995;1261;43799;-89
2023/04/06 06:08:04;;;;;;;36.80;23.00;;;;;;;5.15;72.27;100806.40;180817;1262;43834;-89
2023/04/06 06:12:07;;;;;;;26.80;20.90;;;;;;;5.20;72.44;100808.59;180868;1262;44128;-89
2023/04/06 06:16:10;;;;;;;34.00;21.50;;;;;;;5.23;71.98;100808.27;180802;1261;59599;-89
2023/04/06 06:20:14;;;;;;;31.40;22.10;;;;;;;5.35;73.45;100812.23;180812;1261;44157;-89
2023/04/06 06:24:18;;;;;;;31.70;23.40;;;;;;;5.49;73.08;100814.70;180948;1262;44020;-88
2023/04/06 06:28:21;;;;;;;31.40;22.20;;;;;;;5.77;71.43;100818.02;180960;1261;44208;-87
2023/04/06 06:32:24;;;;;;;32.40;19.30;;;;;;;6.06;69.09;100813.10;180739;1261;44050;-88
2023/04/06 06:36:30;;;;;;;26.70;20.40;;;;;;;6.36;68.64;100813.23;180756;1262;58260;-89
2023/04/06 06:40:34;;;;;;;34.40;24.90;;;;;;;6.39;66.46;100815.92;180842;1261;44052;-88
2023/04/06 06:44:38;;;;;;;54.70;33.10;;;;;;;6.37;65.73;100821.31;180735;1262;43816;-88
2023/04/06 06:48:44;;;;;;;49.90;27.70;;;;;;;6.43;65.00;100823.98;180789;1261;43802;-88
2023/04/06 06:52:47;;;;;;;50.90;30.60;;;;;;;6.68;64.18;100828.23;180779;1261;43832;-88
2023/04/06 06:56:51;;;;;;;52.80;31.40;;;;;;;6.73;63.89;100821.98;180714;1262;58254;-88
2023/04/06 07:00:58;;;;;;;46.90;29.00;;;;;;;6.61;64.11;100822.11;180969;1262;43767;-88
2023/04/06 07:05:02;;;;;;;59.80;35.60;;;;;;;6.59;62.74;100824.32;180810;1262;43936;-88
2023/04/06 07:09:18;;;;;;;43.20;33.30;;;;;;;6.69;61.60;100823.77;180920;1261;43888;-88
2023/04/06 07:13:23;;;;;;;53.70;37.20;;;;;;;6.67;62.69;100822.83;180699;1262;44114;-88
2023/04/06 07:17:26;;;;;;;51.70;37.10;;;;;;;6.77;62.41;100820.83;180758;1262;58255;-88
2023/04/06 07:21:29;;;;;;;56.80;39.20;;;;;;;6.85;61.91;100823.20;180927;1261;43911;-88
2023/04/06 07:25:33;;;;;;;48.80;36.00;;;;;;;6.80;62.58;100826.47;180815;1262;44144;-88
2023/04/06 07:29:37;;;;;;;54.70;41.20;;;;;;;6.64;63.28;100826.31;180729;1262;51367;-88
2023/04/06 07:33:40;;;;;;;62.80;40.40;;;;;;;6.70;63.33;100829.34;180789;1261;43840;-88
2023/04/06 07:37:43;;;;;;;63.80;41.20;;;;;;;6.82;63.48;100821.47;180684;1262;59307;-88
2023/04/06 07:41:47;;;;;;;51.30;36.60;;;;;;;6.53;64.22;100821.13;180699;1262;47177;-88
2023/04/06 07:45:50;;;;;;;53.30;38.00;;;;;;;6.24;65.41;100825.02;180767;1261;44074;-88
2023/04/06 07:49:55;;;;;;;55.20;37.30;;;;;;;6.18;66.98;100826.40;180938;1262;43956;-88
2023/04/06 07:53:58;;;;;;;50.70;34.90;;;;;;;6.29;67.36;100827.90;180692;1262;43995;-88
2023/04/06 07:58:02;;;;;;;52.90;37.50;;;;;;;6.49;66.70;100823.63;180733;1262;59261;-88
2023/04/06 08:02:06;;;;;;;64.00;40.50;;;;;;;6.39;67.78;100819.63;180877;1261;44037;-88
2023/04/06 08:06:10;;;;;;;57.00;35.40;;;;;;;6.32;68.77;100816.86;180554;1262;329831;-87
2023/04/06 08:10:13;;;;;;;52.50;36.20;;;;;;;6.36;69.63;100813.98;180965;1261;44125;-88
2023/04/06 08:14:17;;;;;;;62.10;39.60;;;;;;;6.65;70.50;100811.84;180714;1262;43755;-88
2023/04/06 08:18:20;;;;;;;47.90;36.10;;;;;;;6.79;69.76;100813.34;180772;1261;58275;-88
2023/04/06 08:22:23;;;;;;;55.20;39.30;;;;;;;6.77;68.91;100815.02;180728;1262;43855;-88
2023/04/06 08:26:27;;;;;;;59.00;39.30;;;;;;;6.94;68.46;100813.86;180839;1261;43876;-88
2023/04/06 08:30:30;;;;;;;50.80;37.20;;;;;;;7.00;69.20;100816.35;180752;1262;43776;-88
2023/04/06 08:34:33;;;;;;;53.40;37.30;;;;;;;7.03;69.18;100818.83;180761;1261;44170;-87
2023/04/06 08:38:37;;;;;;;59.40;38.90;;;;;;;7.32;68.70;100818.02;180891;1262;59512;-88
2023/04/06 08:42:49;;;;;;;47.40;37.20;;;;;;;7.65;67.47;100817.81;180731;1262;44136;-88
2023/04/06 08:46:52;;;;;;;50.00;38.90;;;;;;;7.95;67.02;100813.66;180674;1262;43957;-88
2023/04/06 08:50:56;;;;;;;54.00;39.20;;;;;;;8.28;65.98;100810.40;180712;1262;43752;-88
2023/04/06 08:54:59;;;;;;;48.30;35.00;;;;;;;8.58;64.26;100809.42;180858;1261;44192;-88
2023/04/06 08:59:03;;;;;;;50.70;37.20;;;;;;;8.76;61.85;100809.82;180708;1262;58348;-88
2023/04/06 09:03:07;;;;;;;51.20;36.10;;;;;;;8.92;61.21;100800.30;180775;1261;44051;-87
2023/04/06 09:07:11;;;;;;;46.60;31.90;;;;;;;9.04;61.44;100794.91;180718;1262;43897;-88
2023/04/06 09:11:16;;;;;;;44.80;33.90;;;;;;;9.25;60.60;100792.08;180835;1262;43917;-87
2023/04/06 09:15:21;;;;;;;42.20;32.10;;;;;;;9.44;59.70;100791.50;180751;1262;44055;-88
2023/04/06 09:19:26;;;;;;;35.00;25.70;;;;;;;9.63;59.16;100789.14;180971;1262;58012;-88
2023/04/06 09:23:30;;;;;;;23.00;18.10;;;;;;;9.66;57.59;100795.85;180706;1262;44163;-88
2023/04/06 09:27:37;;;;;;;31.90;23.70;;;;;;;9.73;56.96;100789.67;180823;1262;43819;-88
2023/04/06 09:31:40;;;;;;;16.60;14.30;;;;;;;9.84;57.25;100787.15;180814;1262;44011;-88
2023/04/06 09:35:50;;;;;;;20.40;16.10;;;;;;;9.76;53.77;100788.23;181056;1261;43880;-88
2023/04/06 09:40:07;;;;;;;23.30;18.60;;;;;;;9.82;56.59;100784.42;180800;1262;58754;-87
2023/04/06 09:44:13;;;;;;;24.50;18.30;;;;;;;9.91;56.21;100786.32;180870;1261;43993;-87
2023/04/06 09:48:17;;;;;;;25.10;18.90;;;;;;;9.93;54.57;100783.88;181015;1261;44110;-87
2023/04/06 09:52:24;;;;;;;21.70;17.70;;;;;;;9.83;51.71;100782.77;180910;1262;43794;-87
2023/04/06 09:56:32;;;;;;;23.20;16.40;;;;;;;9.83;53.76;100777.80;180847;1262;44251;-88
2023/04/06 10:01:01;;;;;;;21.60;16.90;;;;;;;9.83;51.78;100778.15;180904;1262;59061;-87
2023/04/06 10:05:12;;;;;;;19.60;16.20;;;;;;;9.88;52.01;100780.48;180923;1262;44003;-86
2023/04/06 10:09:16;;;;;;;16.00;13.50;;;;;;;9.99;51.02;100777.77;180978;1261;43786;-87
2023/04/06 10:13:19;;;;;;;17.80;13.80;;;;;;;10.13;49.59;100770.75;180708;1261;44076;-86
2023/04/06 10:17:25;;;;;;;16.40;12.50;;;;;;;10.29;48.33;100776.73;180802;1261;43744;-85
2023/04/06 10:21:32;;;;;;;13.70;11.70;;;;;;;10.28;47.16;100772.50;180685;1261;59862;-86
2023/04/06 10:25:36;;;;;;;21.80;16.80;;;;;;;10.24;50.03;100772.48;180861;1262;44020;-87
2023/04/06 10:29:45;;;;;;;23.60;18.30;;;;;;;10.01;50.26;100773.55;180851;1261;43832;-87
2023/04/06 10:33:58;;;;;;;23.00;16.90;;;;;;;9.81;50.95;100760.95;180847;1261;44012;-87
2023/04/06 10:38:03;;;;;;;23.10;18.00;;;;;;;9.88;50.61;100762.21;180735;1262;43767;-87
2023/04/06 10:42:06;;;;;;;22.40;15.90;;;;;;;10.09;50.45;100759.81;180784;1262;57914;-87
2023/04/06 10:46:10;;;;;;;23.30;16.70;;;;;;;10.02;50.29;100760.37;180762;1262;44211;-87
2023/04/06 10:50:18;;;;;;;21.00;17.00;;;;;;;10.00;50.75;100755.20;180739;1262;43802;-87
2023/04/06 10:54:24;;;;;;;27.40;18.40;;;;;;;10.04;51.31;100757.24;180925;1262;43859;-87
2023/04/06 10:58:27;;;;;;;20.70;16.30;;;;;;;9.72;52.35;100753.48;180718;1262;43857;-87
2023/04/06 11:02:31;;;;;;;25.00;18.00;;;;;;;9.22;52.98;100749.11;180988;1261;58776;-87
2023/04/06 11:06:34;;;;;;;19.70;16.00;;;;;;;8.97;52.43;100746.91;180922;1261;44394;-87
2023/04/06 11:10:37;;;;;;;17.80;14.70;;;;;;;8.77;50.50;100740.63;180955;1261;43760;-87
2023/04/06 11:14:41;;;;;;;18.00;12.90;;;;;;;8.86;51.18;100734.87;180744;1261;43761;-86
2023/04/06 11:18:56;;;;;;;24.00;17.00;;;;;;;9.11;51.67;100732.83;180851;1261;43779;-87
2023/04/06 11:23:00;;;;;;;22.30;15.10;;;;;;;9.43;52.19;100735.64;180849;1262;59619;-87
2023/04/06 11:27:04;;;;;;;19.40;15.70;;;;;;;9.62;51.50;100737.14;180885;1261;43816;-87
2023/04/06 11:31:09;;;;;;;18.00;15.10;;;;;;;9.59;51.23;100731.70;180934;1261;44070;-87
2023/04/06 11:35:22;;;;;;;17.60;14.80;;;;;;;9.54;49.75;100726.20;180695;1262;44166;-86
2023/04/06 11:39:28;;;;;;;24.00;14.20;;;;;;;9.57;50.71;100718.03;180797;1262;44713;-87
2023/04/06 11:43:31;;;;;;;21.60;15.00;;;;;;;9.74;49.43;100717.36;180836;1262;57919;-87
2023/04/06 11:47:37;;;;;;;18.70;14.90;;;;;;;9.95;50.28;100708.07;180836;1261;44225;-87
2023/04/06 11:51:40;;;;;;;14.40;11.40;;;;;;;10.05;49.01;100703.30;180828;1261;43852;-87
2023/04/06 11:55:46;;;;;;;25.90;10.90;;;;;;;9.80;47.04;100703.11;180851;1262;43894;-87
2023/04/06 11:59:49;;;;;;;11.40;9.50;;;;;;;9.61;48.63;100695.98;180772;1262;43798;-87
2023/04/06 12:03:53;;;;;;;13.20;10.60;;;;;;;9.53;48.21;100689.99;180833;1262;58331;-87
2023/04/06 12:07:57;;;;;;;13.20;10.10;;;;;;;9.79;48.92;100688.48;180714;1261;43865;-87
2023/04/06 12:12:05;;;;;;;11.80;8.60;;;;;;;10.01;47.40;100690.44;180957;1261;44231;-87
2023/04/06 12:16:08;;;;;;;12.70;9.80;;;;;;;10.19;46.46;100686.70;180837;1262;44028;-87
2023/04/06 12:20:11;;;;;;;14.40;10.40;;;;;;;10.28;46.68;100684.59;180879;1262;44075;-87
2023/04/06 12:24:28;;;;;;;;;;;;;;;10.29;47.19;100682.23;180832;1262;58367;-87
2023/04/06 12:28:31;;;;;;;17.40;10.80;;;;;;;9.86;49.85;100685.88;180886;1262;43840;-87
2023/04/06 12:32:34;;;;;;;16.00;12.00;;;;;;;9.54;49.32;100682.81;180863;1262;44179;-87
2023/04/06 12:36:38;;;;;;;17.50;11.10;;;;;;;9.31;50.11;100674.48;180812;1261;43667;-87
2023/04/06 12:40:41;;;;;;;15.60;11.40;;;;;;;9.33;50.89;100667.48;180788;1261;43793;-87
2023/04/06 12:44:45;;;;;;;13.90;11.40;;;;;;;9.56;49.27;100669.02;180859;1261;59655;-87
2023/04/06 12:48:48;;;;;;;11.90;8.50;;;;;;;9.81;48.66;100667.27;180980;1263;44345;-87
2023/04/06 12:52:51;;;;;;;13.70;8.50;;;;;;;10.01;46.94;100663.35;180726;1261;44139;-87
2023/04/06 12:56:56;;;;;;;14.50;10.20;;;;;;;9.99;46.96;100657.64;180935;1262;43988;-87
2023/04/06 13:01:02;;;;;;;12.60;10.00;;;;;;;9.91;47.92;100653.25;180920;1263;43916;-84
2023/04/06 13:05:05;;;;;;;;;;;;;;;10.04;47.10;100648.27;180928;1262;57907;-83
2023/04/06 13:09:09;;;;;;;15.50;10.60;;;;;;;9.97;47.69;100645.19;180844;1262;43833;-83
2023/04/06 13:13:12;;;;;;;12.00;9.20;;;;;;;10.15;47.63;100649.36;180731;1262;43939;-82
2023/04/06 13:17:16;;;;;;;14.00;9.00;;;;;;;10.28;47.54;100635.85;180641;1262;43795;-82
2023/04/06 13:21:20;;;;;;;10.30;8.10;;;;;;;10.39;46.86;100631.67;180790;1261;44195;-84
2023/04/06 13:25:24;;;;;;;10.10;8.00;;;;;;;10.49;47.30;100629.88;180681;1262;59483;-85
2023/04/06 13:29:27;;;;;;;12.00;8.50;;;;;;;10.38;46.84;100624.49;180608;1262;44182;-84
2023/04/06 13:33:30;;;;;;;10.80;8.80;;;;;;;10.30;46.90;100623.46;180698;1262;44008;-85
2023/04/06 13:37:34;;;;;;;12.80;9.00;;;;;;;10.23;48.42;100617.09;180571;1264;44004;-84
2023/04/06 13:41:37;;;;;;;11.00;7.70;;;;;;;10.21;47.43;100616.73;180856;1263;43761;-84
2023/04/06 13:45:40;;;;;;;11.40;7.90;;;;;;;10.22;46.55;100602.60;180817;1263;59243;-84
2023/04/06 13:49:43;;;;;;;13.30;10.00;;;;;;;10.14;48.51;100599.28;180834;1261;43833;-83
2023/04/06 13:53:46;;;;;;;9.60;8.50;;;;;;;10.30;48.36;100596.89;180754;1261;44204;-83
2023/04/06 13:57:49;;;;;;;11.30;9.60;;;;;;;10.41;48.32;100594.61;180755;1262;43986;-83
2023/04/06 14:01:52;;;;;;;12.70;8.90;;;;;;;10.43;47.06;100601.45;180861;1264;44084;-83
2023/04/06 14:05:55;;;;;;;10.50;9.40;;;;;;;10.45;45.84;100598.80;180799;1265;57923;-83
2023/04/06 14:10:13;;;;;;;13.00;9.70;;;;;;;10.41;47.30;100596.61;180850;1263;43911;-83
2023/04/06 14:14:17;;;;;;;15.70;11.00;;;;;;;10.30;46.97;100596.70;180636;1262;43832;-83
2023/04/06 14:18:21;;;;;;;9.40;8.60;;;;;;;10.40;46.54;100591.49;180829;1262;43925;-84
2023/04/06 14:22:24;;;;;;;13.10;9.30;;;;;;;10.40;46.58;100591.89;180885;1262;44061;-83
2023/04/06 14:26:27;;;;;;;13.90;10.40;;;;;;;10.46;46.52;100585.77;180887;1262;58333;-84
2023/04/06 14:30:30;;;;;;;16.10;11.10;;;;;;;10.44;47.60;100588.55;180969;1263;44228;-83
2023/04/06 14:34:37;;;;;;;11.40;9.20;;;;;;;10.48;46.64;100581.71;180786;1262;43880;-83
2023/04/06 14:38:40;;;;;;;;;;;;;;;10.55;47.24;100581.38;180770;1263;44133;-83
2023/04/06 14:42:43;;;;;;;13.00;9.60;;;;;;;10.67;48.07;100584.18;180827;1262;43964;-83
2023/04/06 14:46:45;;;;;;;10.50;9.40;;;;;;;10.75;46.45;100580.90;180855;1265;59249;-83
2023/04/06 14:50:53;;;;;;;15.30;11.40;;;;;;;10.58;48.07;100579.22;180859;1263;44027;-83
2023/04/06 14:54:56;;;;;;;13.80;10.10;;;;;;;10.43;48.24;100578.20;180743;1263;43943;-83
2023/04/06 14:59:01;;;;;;;14.20;10.60;;;;;;;10.31;48.36;100575.84;180750;1262;44042;-83
2023/04/06 15:03:04;;;;;;;13.10;10.20;;;;;;;10.22;48.49;100573.52;180859;1264;44121;-83
2023/04/06 15:07:07;;;;;;;13.00;10.60;;;;;;;10.23;47.43;100572.56;180777;1264;59379;-83
2023/04/06 15:11:11;;;;;;;14.00;10.90;;;;;;;10.32;47.23;100573.84;180674;1261;43874;-83
2023/04/06 15:15:14;;;;;;;12.60;9.60;;;;;;;10.35;46.91;100569.02;180653;1263;44005;-83
2023/04/06 15:19:18;;;;;;;14.40;9.40;;;;;;;10.37;48.37;100567.05;180696;1266;44185;-83
2023/04/06 15:23:20;;;;;;;10.30;9.30;;;;;;;10.40;48.16;100562.63;180793;1263;43964;-83
2023/04/06 15:27:24;;;;;;;12.00;9.40;;;;;;;10.40;47.51;100558.90;180756;1262;58142;-83
2023/04/06 15:31:27;;;;;;;11.40;9.20;;;;;;;10.38;47.63;100554.44;180865;1264;44188;-83
2023/04/06 15:35:42;;;;;;;15.60;10.20;;;;;;;10.31;48.58;100561.73;180792;1264;43850;-81
2023/04/06 15:39:45;;;;;;;12.00;10.80;;;;;;;10.14;47.92;100564.58;180882;1262;44098;-81
2023/04/06 15:43:50;;;;;;;9.40;8.00;;;;;;;9.92;48.26;100563.88;180863;1262;43874;-81
2023/04/06 15:47:53;;;;;;;14.40;9.20;;;;;;;9.79;49.32;100560.11;180619;1262;59718;-81
2023/04/06 15:51:56;;;;;;;11.70;9.20;;;;;;;9.69;48.80;100568.77;180854;1262;44000;-81
2023/04/06 15:56:01;;;;;;;13.00;9.40;;;;;;;9.63;48.17;100561.77;180855;1264;43819;-81
2023/04/06 16:00:04;;;;;;;15.00;10.30;;;;;;;9.58;48.53;100562.48;180831;1263;43995;-82
2023/04/06 16:04:10;;;;;;;10.30;8.50;;;;;;;9.57;49.15;100561.98;180704;1262;43834;-82
2023/04/06 16:08:15;;;;;;;13.50;10.50;;;;;;;9.56;49.33;100561.56;180741;1264;58611;-86
2023/04/06 16:12:20;;;;;;;10.90;8.40;;;;;;;9.48;48.42;100561.10;180832;1261;43898;-85
2023/04/06 16:16:23;;;;;;;9.90;9.00;;;;;;;9.40;49.21;100561.50;180730;1262;43857;-85
2023/04/06 16:20:26;;;;;;;12.20;9.50;;;;;;;9.27;49.47;100557.77;180819;1263;43980;-84
2023/04/06 16:24:29;;;;;;;9.80;8.80;;;;;;;9.19;50.98;100557.84;180821;1263;43741;-85
2023/04/06 16:28:33;;;;;;;14.60;11.30;;;;;;;9.11;51.52;100558.07;180799;1264;60349;-86
2023/04/06 16:32:36;;;;;;;15.20;10.90;;;;;;;9.06;53.10;100556.66;180523;1263;43850;-87
2023/04/06 16:36:42;;;;;;;14.50;9.40;;;;;;;8.95;54.06;100556.67;180664;1264;44050;-86
2023/04/06 16:41:03;;;;;;;13.30;9.30;;;;;;;8.82;53.55;100555.15;180649;1264;43863;-87
2023/04/06 16:45:10;;;;;;;12.60;10.80;;;;;;;8.68;53.98;100551.66;180621;1261;43798;-87
2023/04/06 16:49:34;;;;;;;16.30;11.50;;;;;;;8.60;55.61;100551.67;180842;1260;58221;-86
2023/04/06 16:53:50;;;;;;;17.10;11.90;;;;;;;8.49;57.21;100555.08;180851;1262;44843;-86
2023/04/06 16:57:55;;;;;;;13.50;12.10;;;;;;;8.40;57.36;100552.15;180694;1262;44736;-86
2023/04/06 17:02:09;;;;;;;14.30;9.60;;;;;;;8.34;57.62;100550.45;180771;1261;44131;-84
2023/04/06 17:06:14;;;;;;;13.40;10.20;;;;;;;8.25;58.03;100548.54;180698;1264;44078;-86
2023/04/06 17:10:19;;;;;;;18.10;12.40;;;;;;;8.21;57.92;100544.56;180677;1262;58269;-85
2023/04/06 17:14:39;;;;;;;16.60;10.60;;;;;;;8.20;59.03;100546.09;180823;1260;44016;-85
2023/04/06 17:18:49;;;;;;;18.80;14.10;;;;;;;8.16;58.58;100545.12;180601;1263;43927;-86
2023/04/06 17:23:03;;;;;;;18.00;13.30;;;;;;;8.08;59.95;100550.75;180585;1262;43948;-82
2023/04/06 17:27:09;;;;;;;20.90;15.30;;;;;;;7.97;59.64;100556.41;180681;1260;44050;-85
2023/04/06 17:31:26;;;;;;;17.20;13.70;;;;;;;7.86;59.64;100559.44;180571;1263;58424;-86
2023/04/06 17:35:32;;;;;;;20.20;16.00;;;;;;;7.74;60.24;100561.98;180863;1262;43844;-86
2023/04/06 17:39:53;;;;;;;23.60;18.20;;;;;;;7.62;60.29;100563.27;180694;1262;44177;-84
2023/04/06 17:44:16;;;;;;;24.20;16.80;;;;;;;7.49;60.14;100566.77;180796;1262;44074;-86
2023/04/06 17:48:23;;;;;;;21.80;15.30;;;;;;;7.37;60.70;100570.39;180686;1261;43781;-86
2023/04/06 17:53:05;;;;;;;21.70;15.40;;;;;;;7.25;60.45;100575.36;180774;1263;59828;-89
2023/04/06 17:57:14;;;;;;;21.50;15.50;;;;;;;7.15;60.86;100577.59;180637;1263;43997;-87
2023/04/06 18:01:21;;;;;;;23.20;18.10;;;;;;;7.07;60.96;100580.86;180745;1262;43888;-87
2023/04/06 18:05:34;;;;;;;19.60;15.00;;;;;;;6.99;61.22;100582.40;180810;1263;44683;-88
2023/04/06 18:09:41;;;;;;;20.40;16.10;;;;;;;6.92;61.57;100582.14;180653;1262;44190;-88
2023/04/06 18:13:49;;;;;;;20.80;16.00;;;;;;;6.83;61.85;100579.17;180636;1261;59133;-87
2023/04/06 18:18:06;;;;;;;31.50;20.10;;;;;;;6.74;62.02;100579.02;180515;1262;44092;-86
2023/04/06 18:22:16;;;;;;;30.00;19.30;;;;;;;6.66;61.96;100578.61;180619;1262;44064;-87
2023/04/06 18:26:24;;;;;;;21.00;16.40;;;;;;;6.53;62.30;100579.19;180776;1262;44195;-87
2023/04/06 18:30:28;;;;;;;22.00;15.70;;;;;;;6.36;63.61;100579.67;180713;1262;44208;-87